sensor_id;sensor_type;location;lat;lon;timestamp;pressure;altitude;pressure_sealevel;temperature
12007;BMP180;6062;47.294;12.182;2023-04-15T00:01:26;79086.00;;;1.90
12007;BMP180;6062;47.294;12.182;2023-04-15T00:03:53;79093.00;;;1.90
12007;BMP180;6062;47.294;12.182;2023-04-15T00:06:22;79083.00;;;1.80
12007;BMP180;6062;47.294;12.182;2023-04-15T00:08:48;79092.00;;;1.80
12007;BMP180;6062;47.294;12.182;2023-04-15T00:11:15;79094.00;;;1.80
12007;BMP180;6062;47.294;12.182;2023-04-15T00:13:41;79078.00;;;1.80
12007;BMP180;6062;47.294;12.182;2023-04-15T00:16:09;79088.00;;;1.70
12007;BMP180;6062;47.294;12.182;2023-04-15T00:18:35;79086.00;;;1.70
12007;BMP180;6062;47.294;12.182;2023-04-15T00:21:02;79088.00;;;1.70
12007;BMP180;6062;47.294;12.182;2023-04-15T00:23:28;79082.00;;;1.70
12007;BMP180;6062;47.294;12.182;2023-04-15T00:25:55;79083.00;;;1.70
12007;BMP180;6062;47.294;12.182;2023-04-15T00:28:21;79074.00;;;1.70
12007;BMP180;6062;47.294;12.182;2023-04-15T00:30:47;79073.00;;;1.70
12007;BMP180;6062;47.294;12.182;2023-04-15T00:33:13;79081.00;;;1.70
12007;BMP180;6062;47.294;12.182;2023-04-15T00:35:41;79072.00;;;1.70
12007;BMP180;6062;47.294;12.182;2023-04-15T00:38:06;79067.00;;;1.70
12007;BMP180;6062;47.294;12.182;2023-04-15T00:40:35;79086.00;;;1.70
12007;BMP180;6062;47.294;12.182;2023-04-15T00:43:01;79073.00;;;1.60
12007;BMP180;6062;47.294;12.182;2023-04-15T00:45:27;79073.00;;;1.60
12007;BMP180;6062;47.294;12.182;2023-04-15T00:47:53;79072.00;;;1.60
12007;BMP180;6062;47.294;12.182;2023-04-15T00:50:20;79062.00;;;1.60
12007;BMP180;6062;47.294;12.182;2023-04-15T00:52:46;79080.00;;;1.60
12007;BMP180;6062;47.294;12.182;2023-04-15T00:55:12;79058.00;;;1.60
12007;BMP180;6062;47.294;12.182;2023-04-15T00:57:39;79057.00;;;1.60
12007;BMP180;6062;47.294;12.182;2023-04-15T01:00:05;79057.00;;;1.60
12007;BMP180;6062;47.294;12.182;2023-04-15T01:02:36;79064.00;;;1.60
12007;BMP180;6062;47.294;12.182;2023-04-15T01:05:02;79063.00;;;1.60
12007;BMP180;6062;47.294;12.182;2023-04-15T01:07:29;79072.00;;;1.60
12007;BMP180;6062;47.294;12.182;2023-04-15T01:09:55;79072.00;;;1.60
12007;BMP180;6062;47.294;12.182;2023-04-15T01:12:21;79066.00;;;1.70
12007;BMP180;6062;47.294;12.182;2023-04-15T01:14:48;79070.00;;;1.60
12007;BMP180;6062;47.294;12.182;2023-04-15T01:17:14;79067.00;;;1.60
12007;BMP180;6062;47.294;12.182;2023-04-15T01:19:40;79050.00;;;1.60
12007;BMP180;6062;47.294;12.182;2023-04-15T01:22:06;79073.00;;;1.60
12007;BMP180;6062;47.294;12.182;2023-04-15T01:24:32;79046.00;;;1.50
12007;BMP180;6062;47.294;12.182;2023-04-15T01:26:59;79065.00;;;1.50
12007;BMP180;6062;47.294;12.182;2023-04-15T01:29:25;79051.00;;;1.50
12007;BMP180;6062;47.294;12.182;2023-04-15T01:31:54;79066.00;;;1.60
12007;BMP180;6062;47.294;12.182;2023-04-15T01:34:20;79062.00;;;1.60
12007;BMP180;6062;47.294;12.182;2023-04-15T01:36:46;79055.00;;;1.60
12007;BMP180;6062;47.294;12.182;2023-04-15T01:39:12;79065.00;;;1.60
12007;BMP180;6062;47.294;12.182;2023-04-15T01:41:38;79068.00;;;1.60
12007;BMP180;6062;47.294;12.182;2023-04-15T01:44:05;79052.00;;;1.60
12007;BMP180;6062;47.294;12.182;2023-04-15T01:46:31;79052.00;;;1.60
12007;BMP180;6062;47.294;12.182;2023-04-15T01:48:57;79055.00;;;1.60
12007;BMP180;6062;47.294;12.182;2023-04-15T01:51:23;79047.00;;;1.60
12007;BMP180;6062;47.294;12.182;2023-04-15T01:53:48;79050.00;;;1.60
12007;BMP180;6062;47.294;12.182;2023-04-15T01:56:14;79053.00;;;1.60
12007;BMP180;6062;47.294;12.182;2023-04-15T01:58:40;79057.00;;;1.50
12007;BMP180;6062;47.294;12.182;2023-04-15T02:01:06;79059.00;;;1.50
12007;BMP180;6062;47.294;12.182;2023-04-15T02:03:32;79051.00;;;1.50
12007;BMP180;6062;47.294;12.182;2023-04-15T02:05:58;79050.00;;;1.50
12007;BMP180;6062;47.294;12.182;2023-04-15T02:08:23;79044.00;;;1.50
12007;BMP180;6062;47.294;12.182;2023-04-15T02:10:49;79039.00;;;1.50
12007;BMP180;6062;47.294;12.182;2023-04-15T02:13:15;79041.00;;;1.50
12007;BMP180;6062;47.294;12.182;2023-04-15T02:15:47;79028.00;;;1.50
12007;BMP180;6062;47.294;12.182;2023-04-15T02:18:14;79033.00;;;1.50
12007;BMP180;6062;47.294;12.182;2023-04-15T02:20:40;79023.00;;;1.60
12007;BMP180;6062;47.294;12.182;2023-04-15T02:23:08;79026.00;;;1.60
12007;BMP180;6062;47.294;12.182;2023-04-15T02:25:34;79026.00;;;1.60
12007;BMP180;6062;47.294;12.182;2023-04-15T02:28:00;79027.00;;;1.60
12007;BMP180;6062;47.294;12.182;2023-04-15T02:30:25;79038.00;;;1.60
12007;BMP180;6062;47.294;12.182;2023-04-15T02:32:51;79026.00;;;1.70
12007;BMP180;6062;47.294;12.182;2023-04-15T02:35:17;79040.00;;;1.60
12007;BMP180;6062;47.294;12.182;2023-04-15T02:37:45;79037.00;;;1.60
12007;BMP180;6062;47.294;12.182;2023-04-15T02:40:12;79042.00;;;1.70
12007;BMP180;6062;47.294;12.182;2023-04-15T02:42:41;79026.00;;;1.70
12007;BMP180;6062;47.294;12.182;2023-04-15T02:45:08;79031.00;;;1.70
12007;BMP180;6062;47.294;12.182;2023-04-15T02:47:37;79034.00;;;1.70
12007;BMP180;6062;47.294;12.182;2023-04-15T02:50:10;79036.00;;;1.70
12007;BMP180;6062;47.294;12.182;2023-04-15T02:52:39;79027.00;;;1.70
12007;BMP180;6062;47.294;12.182;2023-04-15T02:55:06;79035.00;;;1.70
12007;BMP180;6062;47.294;12.182;2023-04-15T02:57:32;79043.00;;;1.70
12007;BMP180;6062;47.294;12.182;2023-04-15T02:59:59;79014.00;;;1.60
12007;BMP180;6062;47.294;12.182;2023-04-15T03:02:25;79023.00;;;1.50
12007;BMP180;6062;47.294;12.182;2023-04-15T03:04:50;79032.00;;;1.50
12007;BMP180;6062;47.294;12.182;2023-04-15T03:07:18;79022.00;;;1.50
12007;BMP180;6062;47.294;12.182;2023-04-15T03:09:45;79022.00;;;1.50
12007;BMP180;6062;47.294;12.182;2023-04-15T03:12:12;79040.00;;;1.50
12007;BMP180;6062;47.294;12.182;2023-04-15T03:14:37;79029.00;;;1.40
12007;BMP180;6062;47.294;12.182;2023-04-15T03:17:03;79035.00;;;1.50
12007;BMP180;6062;47.294;12.182;2023-04-15T03:19:29;79038.00;;;1.50
12007;BMP180;6062;47.294;12.182;2023-04-15T03:21:55;79022.00;;;1.50
12007;BMP180;6062;47.294;12.182;2023-04-15T03:24:20;79025.00;;;1.50
12007;BMP180;6062;47.294;12.182;2023-04-15T03:26:46;79030.00;;;1.40
12007;BMP180;6062;47.294;12.182;2023-04-15T03:29:12;79025.00;;;1.30
12007;BMP180;6062;47.294;12.182;2023-04-15T03:31:37;79020.00;;;1.30
12007;BMP180;6062;47.294;12.182;2023-04-15T03:34:03;79028.00;;;1.20
12007;BMP180;6062;47.294;12.182;2023-04-15T03:36:30;79020.00;;;1.30
12007;BMP180;6062;47.294;12.182;2023-04-15T03:38:59;79023.00;;;1.30
12007;BMP180;6062;47.294;12.182;2023-04-15T03:41:26;79029.00;;;1.40
12007;BMP180;6062;47.294;12.182;2023-04-15T03:43:53;79022.00;;;1.40
12007;BMP180;6062;47.294;12.182;2023-04-15T03:46:19;79017.00;;;1.50
12007;BMP180;6062;47.294;12.182;2023-04-15T03:48:46;79019.00;;;1.50
12007;BMP180;6062;47.294;12.182;2023-04-15T03:51:11;79026.00;;;1.50
12007;BMP180;6062;47.294;12.182;2023-04-15T03:53:37;79023.00;;;1.50
12007;BMP180;6062;47.294;12.182;2023-04-15T03:56:03;79019.00;;;1.50
12007;BMP180;6062;47.294;12.182;2023-04-15T03:58:28;79022.00;;;1.50
12007;BMP180;6062;47.294;12.182;2023-04-15T04:00:54;79024.00;;;1.50
12007;BMP180;6062;47.294;12.182;2023-04-15T04:03:20;79029.00;;;1.40
12007;BMP180;6062;47.294;12.182;2023-04-15T04:05:46;79026.00;;;1.50
12007;BMP180;6062;47.294;12.182;2023-04-15T04:08:11;79025.00;;;1.50
12007;BMP180;6062;47.294;12.182;2023-04-15T04:10:41;79023.00;;;1.40
12007;BMP180;6062;47.294;12.182;2023-04-15T04:13:07;79001.00;;;1.40
12007;BMP180;6062;47.294;12.182;2023-04-15T04:15:33;79009.00;;;1.40
12007;BMP180;6062;47.294;12.182;2023-04-15T04:17:58;79017.00;;;1.40
12007;BMP180;6062;47.294;12.182;2023-04-15T04:20:24;79027.00;;;1.40
12007;BMP180;6062;47.294;12.182;2023-04-15T04:22:50;79018.00;;;1.40
12007;BMP180;6062;47.294;12.182;2023-04-15T04:25:16;79020.00;;;1.50
12007;BMP180;6062;47.294;12.182;2023-04-15T04:27:42;79030.00;;;1.50
12007;BMP180;6062;47.294;12.182;2023-04-15T04:30:08;79029.00;;;1.50
12007;BMP180;6062;47.294;12.182;2023-04-15T04:32:34;79034.00;;;1.50
12007;BMP180;6062;47.294;12.182;2023-04-15T04:34:59;79038.00;;;1.50
12007;BMP180;6062;47.294;12.182;2023-04-15T04:37:25;79040.00;;;1.40
12007;BMP180;6062;47.294;12.182;2023-04-15T04:39:51;79039.00;;;1.40
12007;BMP180;6062;47.294;12.182;2023-04-15T04:42:17;79033.00;;;1.40
12007;BMP180;6062;47.294;12.182;2023-04-15T04:44:43;79037.00;;;1.40
12007;BMP180;6062;47.294;12.182;2023-04-15T04:47:08;79034.00;;;1.40
12007;BMP180;6062;47.294;12.182;2023-04-15T04:49:34;79039.00;;;1.40
12007;BMP180;6062;47.294;12.182;2023-04-15T04:52:00;79050.00;;;1.40
12007;BMP180;6062;47.294;12.182;2023-04-15T04:54:25;79043.00;;;1.50
12007;BMP180;6062;47.294;12.182;2023-04-15T04:56:52;79030.00;;;1.50
12007;BMP180;6062;47.294;12.182;2023-04-15T04:59:17;79042.00;;;1.50
12007;BMP180;6062;47.294;12.182;2023-04-15T05:01:43;79048.00;;;1.50
12007;BMP180;6062;47.294;12.182;2023-04-15T05:04:09;79039.00;;;1.60
12007;BMP180;6062;47.294;12.182;2023-04-15T05:06:35;79050.00;;;1.50
12007;BMP180;6062;47.294;12.182;2023-04-15T05:09:02;79047.00;;;1.60
12007;BMP180;6062;47.294;12.182;2023-04-15T05:11:28;79057.00;;;1.60
12007;BMP180;6062;47.294;12.182;2023-04-15T05:13:54;79055.00;;;1.60
12007;BMP180;6062;47.294;12.182;2023-04-15T05:16:20;79038.00;;;1.50
12007;BMP180;6062;47.294;12.182;2023-04-15T05:18:46;79044.00;;;1.50
12007;BMP180;6062;47.294;12.182;2023-04-15T05:21:12;79054.00;;;1.60
12007;BMP180;6062;47.294;12.182;2023-04-15T05:23:38;79058.00;;;1.60
12007;BMP180;6062;47.294;12.182;2023-04-15T05:26:03;79049.00;;;1.60
12007;BMP180;6062;47.294;12.182;2023-04-15T05:28:29;79051.00;;;1.60
12007;BMP180;6062;47.294;12.182;2023-04-15T05:30:55;79049.00;;;1.70
12007;BMP180;6062;47.294;12.182;2023-04-15T05:33:21;79047.00;;;1.70
12007;BMP180;6062;47.294;12.182;2023-04-15T05:35:47;79046.00;;;1.80
12007;BMP180;6062;47.294;12.182;2023-04-15T05:38:13;79042.00;;;1.80
12007;BMP180;6062;47.294;12.182;2023-04-15T05:40:38;79057.00;;;1.90
12007;BMP180;6062;47.294;12.182;2023-04-15T05:43:04;79066.00;;;1.90
12007;BMP180;6062;47.294;12.182;2023-04-15T05:45:30;79063.00;;;2.00
12007;BMP180;6062;47.294;12.182;2023-04-15T05:47:56;79057.00;;;2.10
12007;BMP180;6062;47.294;12.182;2023-04-15T05:50:21;79066.00;;;2.10
12007;BMP180;6062;47.294;12.182;2023-04-15T05:52:47;79069.00;;;2.20
12007;BMP180;6062;47.294;12.182;2023-04-15T05:55:13;79068.00;;;2.30
12007;BMP180;6062;47.294;12.182;2023-04-15T05:57:39;79069.00;;;2.40
12007;BMP180;6062;47.294;12.182;2023-04-15T06:00:05;79064.00;;;2.50
12007;BMP180;6062;47.294;12.182;2023-04-15T06:02:31;79052.00;;;2.50
12007;BMP180;6062;47.294;12.182;2023-04-15T06:04:57;79062.00;;;2.50
12007;BMP180;6062;47.294;12.182;2023-04-15T06:07:23;79066.00;;;2.50
12007;BMP180;6062;47.294;12.182;2023-04-15T06:09:49;79065.00;;;2.50
12007;BMP180;6062;47.294;12.182;2023-04-15T06:12:15;79069.00;;;2.50
12007;BMP180;6062;47.294;12.182;2023-04-15T06:14:41;79058.00;;;2.50
12007;BMP180;6062;47.294;12.182;2023-04-15T06:17:07;79051.00;;;2.40
12007;BMP180;6062;47.294;12.182;2023-04-15T06:19:34;79068.00;;;2.40
12007;BMP180;6062;47.294;12.182;2023-04-15T06:22:02;79073.00;;;2.40
12007;BMP180;6062;47.294;12.182;2023-04-15T06:24:28;79067.00;;;2.40
12007;BMP180;6062;47.294;12.182;2023-04-15T06:26:53;79056.00;;;2.40
12007;BMP180;6062;47.294;12.182;2023-04-15T06:29:19;79065.00;;;2.40
12007;BMP180;6062;47.294;12.182;2023-04-15T06:31:47;79069.00;;;2.40
12007;BMP180;6062;47.294;12.182;2023-04-15T06:34:13;79064.00;;;2.40
12007;BMP180;6062;47.294;12.182;2023-04-15T06:36:39;79043.00;;;2.40
12007;BMP180;6062;47.294;12.182;2023-04-15T06:39:05;79062.00;;;2.40
12007;BMP180;6062;47.294;12.182;2023-04-15T06:41:30;79057.00;;;2.50
12007;BMP180;6062;47.294;12.182;2023-04-15T06:43:56;79058.00;;;2.50
12007;BMP180;6062;47.294;12.182;2023-04-15T06:46:22;79064.00;;;2.60
12007;BMP180;6062;47.294;12.182;2023-04-15T06:48:48;79066.00;;;2.70
12007;BMP180;6062;47.294;12.182;2023-04-15T06:51:14;79070.00;;;2.80
12007;BMP180;6062;47.294;12.182;2023-04-15T06:53:39;79076.00;;;2.90
12007;BMP180;6062;47.294;12.182;2023-04-15T06:56:07;79064.00;;;3.00
12007;BMP180;6062;47.294;12.182;2023-04-15T06:58:34;79073.00;;;3.10
12007;BMP180;6062;47.294;12.182;2023-04-15T07:00:59;79066.00;;;3.30
12007;BMP180;6062;47.294;12.182;2023-04-15T07:03:25;79071.00;;;3.40
12007;BMP180;6062;47.294;12.182;2023-04-15T07:05:51;79062.00;;;3.60
12007;BMP180;6062;47.294;12.182;2023-04-15T07:08:19;79070.00;;;3.60
12007;BMP180;6062;47.294;12.182;2023-04-15T07:10:45;79074.00;;;3.70
12007;BMP180;6062;47.294;12.182;2023-04-15T07:13:12;79073.00;;;3.80
12007;BMP180;6062;47.294;12.182;2023-04-15T07:15:38;79081.00;;;3.90
12007;BMP180;6062;47.294;12.182;2023-04-15T07:18:03;79063.00;;;3.90
12007;BMP180;6062;47.294;12.182;2023-04-15T07:20:29;79078.00;;;4.00
12007;BMP180;6062;47.294;12.182;2023-04-15T07:22:55;79080.00;;;4.10
12007;BMP180;6062;47.294;12.182;2023-04-15T07:25:21;79091.00;;;4.20
12007;BMP180;6062;47.294;12.182;2023-04-15T07:27:47;79091.00;;;4.20
12007;BMP180;6062;47.294;12.182;2023-04-15T07:30:13;79090.00;;;4.30
12007;BMP180;6062;47.294;12.182;2023-04-15T07:32:45;79092.00;;;4.40
12007;BMP180;6062;47.294;12.182;2023-04-15T07:35:11;79082.00;;;4.50
12007;BMP180;6062;47.294;12.182;2023-04-15T07:37:37;79089.00;;;4.50
12007;BMP180;6062;47.294;12.182;2023-04-15T07:40:04;79097.00;;;4.60
12007;BMP180;6062;47.294;12.182;2023-04-15T07:42:32;79092.00;;;4.60
12007;BMP180;6062;47.294;12.182;2023-04-15T07:44:58;79095.00;;;4.80
12007;BMP180;6062;47.294;12.182;2023-04-15T07:47:24;79086.00;;;4.90
12007;BMP180;6062;47.294;12.182;2023-04-15T07:49:50;79092.00;;;5.00
12007;BMP180;6062;47.294;12.182;2023-04-15T07:52:16;79082.00;;;5.10
12007;BMP180;6062;47.294;12.182;2023-04-15T07:54:41;79094.00;;;5.30
12007;BMP180;6062;47.294;12.182;2023-04-15T07:57:07;79099.00;;;5.50
12007;BMP180;6062;47.294;12.182;2023-04-15T07:59:33;79092.00;;;5.70
12007;BMP180;6062;47.294;12.182;2023-04-15T08:01:58;79080.00;;;5.90
12007;BMP180;6062;47.294;12.182;2023-04-15T08:04:24;79093.00;;;6.00
12007;BMP180;6062;47.294;12.182;2023-04-15T08:06:50;79079.00;;;6.10
12007;BMP180;6062;47.294;12.182;2023-04-15T08:09:16;79094.00;;;6.20
12007;BMP180;6062;47.294;12.182;2023-04-15T08:11:42;79105.00;;;6.40
12007;BMP180;6062;47.294;12.182;2023-04-15T08:14:08;79099.00;;;6.60
12007;BMP180;6062;47.294;12.182;2023-04-15T08:16:34;79088.00;;;6.80
12007;BMP180;6062;47.294;12.182;2023-04-15T08:18:59;79091.00;;;7.00
12007;BMP180;6062;47.294;12.182;2023-04-15T08:21:25;79100.00;;;7.20
12007;BMP180;6062;47.294;12.182;2023-04-15T08:23:52;79099.00;;;7.40
12007;BMP180;6062;47.294;12.182;2023-04-15T08:26:20;79100.00;;;7.60
12007;BMP180;6062;47.294;12.182;2023-04-15T08:28:47;79098.00;;;7.70
12007;BMP180;6062;47.294;12.182;2023-04-15T08:31:17;79111.00;;;7.80
12007;BMP180;6062;47.294;12.182;2023-04-15T08:33:43;79098.00;;;8.00
12007;BMP180;6062;47.294;12.182;2023-04-15T08:36:09;79109.00;;;8.00
12007;BMP180;6062;47.294;12.182;2023-04-15T08:38:35;79113.00;;;8.00
12007;BMP180;6062;47.294;12.182;2023-04-15T08:41:23;79113.00;;;7.90
12007;BMP180;6062;47.294;12.182;2023-04-15T08:44:03;79118.00;;;7.60
12007;BMP180;6062;47.294;12.182;2023-04-15T08:46:31;79123.00;;;7.50
12007;BMP180;6062;47.294;12.182;2023-04-15T08:48:58;79114.00;;;7.50
12007;BMP180;6062;47.294;12.182;2023-04-15T08:51:25;79108.00;;;7.60
12007;BMP180;6062;47.294;12.182;2023-04-15T08:53:52;79114.00;;;7.80
12007;BMP180;6062;47.294;12.182;2023-04-15T08:56:24;79117.00;;;7.90
12007;BMP180;6062;47.294;12.182;2023-04-15T08:58:54;79123.00;;;8.10
12007;BMP180;6062;47.294;12.182;2023-04-15T09:01:19;79133.00;;;8.20
12007;BMP180;6062;47.294;12.182;2023-04-15T09:03:48;79125.00;;;8.30
12007;BMP180;6062;47.294;12.182;2023-04-15T09:06:16;79128.00;;;8.50
12007;BMP180;6062;47.294;12.182;2023-04-15T09:08:43;79136.00;;;8.60
12007;BMP180;6062;47.294;12.182;2023-04-15T09:11:09;79133.00;;;8.70
12007;BMP180;6062;47.294;12.182;2023-04-15T09:13:35;79134.00;;;8.80
12007;BMP180;6062;47.294;12.182;2023-04-15T09:16:01;79132.00;;;8.90
12007;BMP180;6062;47.294;12.182;2023-04-15T09:18:34;79137.00;;;8.90
12007;BMP180;6062;47.294;12.182;2023-04-15T09:21:13;79129.00;;;8.70
12007;BMP180;6062;47.294;12.182;2023-04-15T09:23:53;79138.00;;;8.60
12007;BMP180;6062;47.294;12.182;2023-04-15T09:26:38;79126.00;;;8.60
12007;BMP180;6062;47.294;12.182;2023-04-15T09:29:05;79137.00;;;8.60
12007;BMP180;6062;47.294;12.182;2023-04-15T09:31:32;79136.00;;;8.60
12007;BMP180;6062;47.294;12.182;2023-04-15T09:33:58;79139.00;;;8.60
12007;BMP180;6062;47.294;12.182;2023-04-15T09:36:24;79144.00;;;8.70
12007;BMP180;6062;47.294;12.182;2023-04-15T09:38:58;79149.00;;;8.80
12007;BMP180;6062;47.294;12.182;2023-04-15T09:41:25;79155.00;;;8.80
12007;BMP180;6062;47.294;12.182;2023-04-15T09:43:51;79151.00;;;8.80
12007;BMP180;6062;47.294;12.182;2023-04-15T09:46:17;79155.00;;;8.80
12007;BMP180;6062;47.294;12.182;2023-04-15T09:48:43;79159.00;;;8.80
12007;BMP180;6062;47.294;12.182;2023-04-15T09:51:09;79150.00;;;8.80
12007;BMP180;6062;47.294;12.182;2023-04-15T09:53:36;79159.00;;;8.80
12007;BMP180;6062;47.294;12.182;2023-04-15T09:56:05;79158.00;;;8.90
12007;BMP180;6062;47.294;12.182;2023-04-15T09:58:34;79166.00;;;9.00
12007;BMP180;6062;47.294;12.182;2023-04-15T10:01:03;79169.00;;;9.10
12007;BMP180;6062;47.294;12.182;2023-04-15T10:03:33;79168.00;;;9.20
12007;BMP180;6062;47.294;12.182;2023-04-15T10:06:00;79162.00;;;9.30
12007;BMP180;6062;47.294;12.182;2023-04-15T10:08:29;79166.00;;;9.40
12007;BMP180;6062;47.294;12.182;2023-04-15T10:10:56;79175.00;;;9.50
12007;BMP180;6062;47.294;12.182;2023-04-15T10:13:29;79173.00;;;9.50
12007;BMP180;6062;47.294;12.182;2023-04-15T10:16:11;79180.00;;;9.40
12007;BMP180;6062;47.294;12.182;2023-04-15T10:18:43;79170.00;;;9.30
12007;BMP180;6062;47.294;12.182;2023-04-15T10:21:10;79177.00;;;9.40
12007;BMP180;6062;47.294;12.182;2023-04-15T10:23:36;79175.00;;;9.60
12007;BMP180;6062;47.294;12.182;2023-04-15T10:26:03;79175.00;;;9.70
12007;BMP180;6062;47.294;12.182;2023-04-15T10:28:29;79187.00;;;9.80
12007;BMP180;6062;47.294;12.182;2023-04-15T10:30:57;79190.00;;;9.90
12007;BMP180;6062;47.294;12.182;2023-04-15T10:33:24;79189.00;;;10.10
12007;BMP180;6062;47.294;12.182;2023-04-15T10:35:53;79183.00;;;10.20
12007;BMP180;6062;47.294;12.182;2023-04-15T10:38:41;79188.00;;;10.40
12007;BMP180;6062;47.294;12.182;2023-04-15T10:41:24;79185.00;;;10.60
12007;BMP180;6062;47.294;12.182;2023-04-15T10:44:09;79180.00;;;10.70
12007;BMP180;6062;47.294;12.182;2023-04-15T10:46:43;79179.00;;;10.80
12007;BMP180;6062;47.294;12.182;2023-04-15T10:49:23;79182.00;;;10.80
12007;BMP180;6062;47.294;12.182;2023-04-15T10:51:57;79173.00;;;10.80
12007;BMP180;6062;47.294;12.182;2023-04-15T11:05:15;79188.00;;;10.10
12007;BMP180;6062;47.294;12.182;2023-04-15T11:07:54;79189.00;;;9.80
12007;BMP180;6062;47.294;12.182;2023-04-15T11:13:15;79180.00;;;9.50
12007;BMP180;6062;47.294;12.182;2023-04-15T11:15:44;79192.00;;;9.40
12007;BMP180;6062;47.294;12.182;2023-04-15T11:18:21;79187.00;;;9.30
12007;BMP180;6062;47.294;12.182;2023-04-15T11:20:50;79194.00;;;9.30
12007;BMP180;6062;47.294;12.182;2023-04-15T11:23:40;79191.00;;;9.40
12007;BMP180;6062;47.294;12.182;2023-04-15T11:26:12;79200.00;;;9.50
12007;BMP180;6062;47.294;12.182;2023-04-15T11:28:46;79199.00;;;9.70
12007;BMP180;6062;47.294;12.182;2023-04-15T11:31:15;79197.00;;;9.80
12007;BMP180;6062;47.294;12.182;2023-04-15T11:33:53;79202.00;;;10.00
12007;BMP180;6062;47.294;12.182;2023-04-15T11:36:19;79198.00;;;10.10
12007;BMP180;6062;47.294;12.182;2023-04-15T11:38:48;79215.00;;;10.30
12007;BMP180;6062;47.294;12.182;2023-04-15T11:41:14;79198.00;;;10.30
12007;BMP180;6062;47.294;12.182;2023-04-15T11:43:40;79214.00;;;10.40
12007;BMP180;6062;47.294;12.182;2023-04-15T11:46:06;79205.00;;;10.40
12007;BMP180;6062;47.294;12.182;2023-04-15T11:48:35;79211.00;;;10.50
12007;BMP180;6062;47.294;12.182;2023-04-15T11:51:06;79220.00;;;10.60
12007;BMP180;6062;47.294;12.182;2023-04-15T11:53:47;79216.00;;;10.70
12007;BMP180;6062;47.294;12.182;2023-04-15T11:56:24;79214.00;;;10.80
12007;BMP180;6062;47.294;12.182;2023-04-15T11:58:57;79214.00;;;10.90
12007;BMP180;6062;47.294;12.182;2023-04-15T12:01:37;79222.00;;;10.90
12007;BMP180;6062;47.294;12.182;2023-04-15T12:04:15;79224.00;;;10.80
12007;BMP180;6062;47.294;12.182;2023-04-15T12:06:42;79222.00;;;10.80
12007;BMP180;6062;47.294;12.182;2023-04-15T12:09:12;79234.00;;;10.90
12007;BMP180;6062;47.294;12.182;2023-04-15T12:11:46;79229.00;;;11.10
12007;BMP180;6062;47.294;12.182;2023-04-15T12:14:28;79239.00;;;11.20
12007;BMP180;6062;47.294;12.182;2023-04-15T12:16:57;79236.00;;;11.40
12007;BMP180;6062;47.294;12.182;2023-04-15T12:19:29;79238.00;;;11.60
12007;BMP180;6062;47.294;12.182;2023-04-15T12:22:03;79234.00;;;11.80
12007;BMP180;6062;47.294;12.182;2023-04-15T12:24:34;79252.00;;;12.00
12007;BMP180;6062;47.294;12.182;2023-04-15T12:27:11;79241.00;;;12.10
12007;BMP180;6062;47.294;12.182;2023-04-15T12:29:39;79245.00;;;12.10
12007;BMP180;6062;47.294;12.182;2023-04-15T12:32:15;79243.00;;;12.10
12007;BMP180;6062;47.294;12.182;2023-04-15T12:34:49;79248.00;;;12.10
12007;BMP180;6062;47.294;12.182;2023-04-15T12:37:15;79253.00;;;12.20
12007;BMP180;6062;47.294;12.182;2023-04-15T12:39:44;79254.00;;;12.20
12007;BMP180;6062;47.294;12.182;2023-04-15T12:42:11;79254.00;;;12.30
12007;BMP180;6062;47.294;12.182;2023-04-15T12:44:38;79260.00;;;12.40
12007;BMP180;6062;47.294;12.182;2023-04-15T12:47:04;79259.00;;;12.50
12007;BMP180;6062;47.294;12.182;2023-04-15T12:49:31;79266.00;;;12.50
12007;BMP180;6062;47.294;12.182;2023-04-15T12:51:59;79264.00;;;12.50
12007;BMP180;6062;47.294;12.182;2023-04-15T12:54:27;79268.00;;;12.40
12007;BMP180;6062;47.294;12.182;2023-04-15T12:56:54;79266.00;;;12.30
12007;BMP180;6062;47.294;12.182;2023-04-15T12:59:21;79265.00;;;12.20
12007;BMP180;6062;47.294;12.182;2023-04-15T13:01:49;79266.00;;;12.10
12007;BMP180;6062;47.294;12.182;2023-04-15T13:04:15;79268.00;;;12.00
12007;BMP180;6062;47.294;12.182;2023-04-15T13:06:41;79272.00;;;12.00
12007;BMP180;6062;47.294;12.182;2023-04-15T13:09:07;79276.00;;;12.00
12007;BMP180;6062;47.294;12.182;2023-04-15T13:11:34;79279.00;;;12.00
12007;BMP180;6062;47.294;12.182;2023-04-15T13:14:02;79276.00;;;12.10
12007;BMP180;6062;47.294;12.182;2023-04-15T13:16:29;79282.00;;;12.10
12007;BMP180;6062;47.294;12.182;2023-04-15T13:18:55;79284.00;;;12.10
12007;BMP180;6062;47.294;12.182;2023-04-15T13:21:21;79287.00;;;12.20
12007;BMP180;6062;47.294;12.182;2023-04-15T13:23:48;79291.00;;;12.10
12007;BMP180;6062;47.294;12.182;2023-04-15T13:26:16;79298.00;;;12.10
12007;BMP180;6062;47.294;12.182;2023-04-15T13:28:42;79293.00;;;12.10
12007;BMP180;6062;47.294;12.182;2023-04-15T13:31:07;79298.00;;;12.10
12007;BMP180;6062;47.294;12.182;2023-04-15T13:33:33;79297.00;;;12.00
12007;BMP180;6062;47.294;12.182;2023-04-15T13:35:59;79298.00;;;12.00
12007;BMP180;6062;47.294;12.182;2023-04-15T13:38:25;79300.00;;;11.90
12007;BMP180;6062;47.294;12.182;2023-04-15T13:40:51;79307.00;;;11.90
12007;BMP180;6062;47.294;12.182;2023-04-15T13:43:17;79288.00;;;11.80
12007;BMP180;6062;47.294;12.182;2023-04-15T13:45:45;79307.00;;;11.80
12007;BMP180;6062;47.294;12.182;2023-04-15T13:48:11;79310.00;;;11.70
12007;BMP180;6062;47.294;12.182;2023-04-15T13:50:37;79306.00;;;11.60
12007;BMP180;6062;47.294;12.182;2023-04-15T13:53:03;79314.00;;;11.50
12007;BMP180;6062;47.294;12.182;2023-04-15T13:55:28;79310.00;;;11.40
12007;BMP180;6062;47.294;12.182;2023-04-15T13:57:55;79306.00;;;11.30
12007;BMP180;6062;47.294;12.182;2023-04-15T14:00:21;79305.00;;;11.10
12007;BMP180;6062;47.294;12.182;2023-04-15T14:02:47;79313.00;;;10.90
12007;BMP180;6062;47.294;12.182;2023-04-15T14:05:13;79305.00;;;10.70
12007;BMP180;6062;47.294;12.182;2023-04-15T14:07:38;79309.00;;;10.50
12007;BMP180;6062;47.294;12.182;2023-04-15T14:10:05;79309.00;;;10.40
12007;BMP180;6062;47.294;12.182;2023-04-15T14:12:31;79325.00;;;10.30
12007;BMP180;6062;47.294;12.182;2023-04-15T14:14:56;79309.00;;;10.20
12007;BMP180;6062;47.294;12.182;2023-04-15T14:17:22;79309.00;;;10.10
12007;BMP180;6062;47.294;12.182;2023-04-15T14:19:48;79304.00;;;10.00
12007;BMP180;6062;47.294;12.182;2023-04-15T14:22:13;79314.00;;;9.80
12007;BMP180;6062;47.294;12.182;2023-04-15T14:24:39;79320.00;;;9.70
12007;BMP180;6062;47.294;12.182;2023-04-15T14:27:05;79323.00;;;9.50
12007;BMP180;6062;47.294;12.182;2023-04-15T14:29:33;79323.00;;;9.40
12007;BMP180;6062;47.294;12.182;2023-04-15T14:31:59;79319.00;;;9.20
12007;BMP180;6062;47.294;12.182;2023-04-15T14:34:25;79321.00;;;9.10